createdAt,value
2017-05-17T00:02:03.856Z,47.9
2017-05-17T00:07:03.539Z,47.8
2017-05-17T00:12:03.380Z,47.7
2017-05-17T00:17:04.029Z,47.7
2017-05-17T00:22:03.654Z,47.7
2017-05-17T00:27:03.512Z,47.6
2017-05-17T00:32:03.256Z,47.6
2017-05-17T00:37:03.118Z,47.6
2017-05-17T00:42:03.699Z,47.5
2017-05-17T00:47:03.442Z,47.5
2017-05-17T00:52:03.062Z,47.5
2017-05-17T00:57:03.584Z,47.5
2017-05-17T01:02:03.386Z,47.5
2017-05-17T01:07:03.164Z,47.6
2017-05-17T01:12:03.890Z,47.4
2017-05-17T01:17:03.803Z,47.3
2017-05-17T01:22:03.344Z,47.3
2017-05-17T01:27:03.944Z,47.2
2017-05-17T01:32:04.360Z,47.3
2017-05-17T01:37:03.290Z,47.2
2017-05-17T01:42:03.875Z,47.2
2017-05-17T01:47:03.615Z,47.2
2017-05-17T01:52:03.236Z,47.2
2017-05-17T01:57:03.917Z,47.2
2017-05-17T02:02:03.721Z,47.1
2017-05-17T02:07:03.709Z,47.2
2017-05-17T02:12:03.592Z,47.3
2017-05-17T02:17:03.428Z,47.2
2017-05-17T02:22:03.423Z,47.0
2017-05-17T02:27:03.293Z,47.1
2017-05-17T02:32:04.033Z,47.0
2017-05-17T02:37:03.762Z,46.9
2017-05-17T02:42:03.022Z,47.0
2017-05-17T02:47:03.372Z,46.9
2017-05-17T02:52:03.608Z,46.9
2017-05-17T02:57:03.363Z,46.9
2017-05-17T03:02:13.756Z,46.9
2017-05-17T03:07:03.211Z,47.0
2017-05-17T03:12:03.794Z,46.9
2017-05-17T03:17:25.151Z,46.9
2017-05-17T03:22:03.720Z,46.8
2017-05-17T03:27:03.142Z,46.9
2017-05-17T03:32:24.026Z,46.9
2017-05-17T03:37:03.102Z,46.7
2017-05-17T03:42:03.683Z,46.7
2017-05-17T03:47:26.282Z,46.7
2017-05-17T03:52:03.548Z,46.7
2017-05-17T03:57:03.816Z,46.7
2017-05-17T04:02:21.789Z,46.7
2017-05-17T04:07:03.639Z,46.5
2017-05-17T04:12:03.247Z,46.5
2017-05-17T04:17:24.310Z,46.5
2017-05-17T04:22:03.120Z,46.5
2017-05-17T04:27:03.461Z,46.2
2017-05-17T04:32:22.139Z,45.9
2017-05-17T04:37:03.164Z,45.9
2017-05-17T04:42:03.512Z,45.5
2017-05-17T04:47:28.672Z,45.4
2017-05-17T04:52:03.195Z,45.4
2017-05-17T04:57:03.501Z,45.3
2017-05-17T05:02:26.777Z,45.2
2017-05-17T05:07:03.633Z,45.2
2017-05-17T05:12:03.181Z,45.2
2017-05-17T05:17:27.108Z,45.2
2017-05-17T05:22:03.369Z,45.2
2017-05-17T05:27:03.810Z,45.3
2017-05-17T05:32:23.268Z,45.4
2017-05-17T05:37:03.826Z,45.4
2017-05-17T05:42:03.149Z,45.4
2017-05-17T05:47:24.108Z,45.5
2017-05-17T05:52:03.455Z,45.4
2017-05-17T05:57:03.776Z,45.5
2017-05-17T06:02:28.401Z,45.7
2017-05-17T06:07:03.855Z,45.7
2017-05-17T06:12:03.382Z,45.7
2017-05-17T06:17:24.152Z,45.8
2017-05-17T06:22:03.850Z,45.8
2017-05-17T06:27:03.191Z,46.0
2017-05-17T06:32:23.978Z,46.0
2017-05-17T06:37:03.613Z,46.0
2017-05-17T06:42:03.903Z,46.3
2017-05-17T06:47:24.184Z,46.2
2017-05-17T06:52:03.566Z,46.3
2017-05-17T06:57:03.861Z,46.5
2017-05-17T07:02:23.489Z,46.6
2017-05-17T07:07:03.661Z,46.9
2017-05-17T07:12:03.306Z,47.0
2017-05-17T07:17:24.272Z,46.9
2017-05-17T07:22:03.355Z,47.2
2017-05-17T07:27:03.809Z,47.4
2017-05-17T07:32:32.540Z,47.5
2017-05-17T07:37:03.241Z,47.5
2017-05-17T07:42:03.585Z,47.7
2017-05-17T07:47:25.748Z,47.9
2017-05-17T07:52:03.465Z,48.0
2017-05-17T07:57:03.813Z,48.0
2017-05-17T08:02:27.651Z,48.2
2017-05-17T08:07:03.778Z,48.3
2017-05-17T08:12:03.347Z,48.3
2017-05-17T08:17:24.345Z,48.3
2017-05-17T08:22:03.775Z,48.5
2017-05-17T08:27:03.145Z,48.5
2017-05-17T08:32:27.439Z,48.4
2017-05-17T08:37:03.627Z,48.4
2017-05-17T08:42:03.071Z,48.9
2017-05-17T08:47:25.569Z,48.9
2017-05-17T08:52:03.579Z,48.9
2017-05-17T08:57:03.148Z,48.9
2017-05-17T09:02:27.929Z,49.5
2017-05-17T09:07:03.612Z,49.4
2017-05-17T09:12:03.383Z,49.4
2017-05-17T09:17:25.527Z,49.4
2017-05-17T09:22:03.789Z,49.6
2017-05-17T09:27:03.198Z,50.0
2017-05-17T09:32:27.573Z,49.9
2017-05-17T09:37:03.819Z,49.9
2017-05-17T09:42:03.535Z,50.2
2017-05-17T09:47:24.083Z,50.9
2017-05-17T09:52:03.765Z,50.5
2017-05-17T09:57:03.727Z,50.5
2017-05-17T10:02:26.513Z,50.4
2017-05-17T10:07:03.490Z,50.4
2017-05-17T10:12:03.118Z,50.4
2017-05-17T10:17:25.610Z,50.5
2017-05-17T10:22:03.275Z,50.6
2017-05-17T10:27:03.716Z,50.7
2017-05-17T10:37:03.794Z,50.4
2017-05-17T10:42:03.199Z,50.5
2017-05-17T10:47:24.428Z,50.9
2017-05-17T10:52:03.714Z,50.6
2017-05-17T10:57:03.114Z,50.5
2017-05-17T11:02:24.949Z,51.2
2017-05-17T11:07:03.602Z,51.1
2017-05-17T11:12:03.285Z,51.1
2017-05-17T11:17:24.019Z,51.7
2017-05-17T11:22:03.803Z,51.3
2017-05-17T11:27:03.238Z,51.6
2017-05-17T11:32:24.133Z,51.6
2017-05-17T11:37:03.365Z,51.5
2017-05-17T11:42:03.732Z,51.3
2017-05-17T11:47:27.883Z,51.3
2017-05-17T11:52:03.275Z,52.0
2017-05-17T11:57:03.680Z,52.0
2017-05-17T12:02:23.466Z,51.9
2017-05-17T12:07:03.558Z,52.3
2017-05-17T12:12:03.149Z,52.2
2017-05-17T12:17:24.555Z,52.1
2017-05-17T12:22:03.473Z,52.5
2017-05-17T12:27:03.764Z,52.5
2017-05-17T12:32:27.738Z,52.3
2017-05-17T12:37:03.432Z,52.3
2017-05-17T12:42:03.793Z,52.4
2017-05-17T12:47:27.260Z,52.1
2017-05-17T12:52:03.362Z,52.5
2017-05-17T12:57:03.650Z,52.5
2017-05-17T13:02:23.477Z,52.3
2017-05-17T13:07:03.900Z,52.2
2017-05-17T13:12:03.921Z,52.2
2017-05-17T13:17:24.021Z,52.3
2017-05-17T13:22:03.456Z,52.6
2017-05-17T13:27:03.780Z,52.5
2017-05-17T13:32:23.604Z,52.7
2017-05-17T13:37:03.168Z,53.3
2017-05-17T13:42:03.572Z,52.8
2017-05-17T13:47:28.965Z,53.3
2017-05-17T13:52:03.263Z,53.4
2017-05-17T13:57:03.655Z,53.2
2017-05-17T14:02:23.388Z,53.3
2017-05-17T14:07:03.808Z,53.5
2017-05-17T14:12:03.420Z,53.6
2017-05-17T14:17:28.997Z,53.7
2017-05-17T14:22:04.011Z,53.6
2017-05-17T14:27:03.442Z,52.6
2017-05-17T14:32:28.004Z,52.0
2017-05-17T14:37:03.791Z,49.9
2017-05-17T14:42:03.188Z,45.6
2017-05-17T14:47:28.385Z,43.7
2017-05-17T14:52:03.032Z,42.7
2017-05-17T14:57:03.416Z,42.7
2017-05-17T15:07:03.195Z,39.2
2017-05-17T15:12:03.592Z,38.1
2017-05-17T15:17:22.402Z,37.2
2017-05-17T15:22:03.961Z,36.9
2017-05-17T15:27:03.260Z,36.8
2017-05-17T15:32:20.376Z,35.8
2017-05-17T15:37:03.396Z,35.8
2017-05-17T15:42:03.684Z,36.1
2017-05-17T15:47:18.861Z,35.8
2017-05-17T15:52:03.620Z,36.2
2017-05-17T15:57:03.913Z,36.1
2017-05-17T16:02:17.319Z,35.6
2017-05-17T16:07:03.360Z,36.5
2017-05-17T16:12:03.763Z,36.5
2017-05-17T16:17:18.623Z,36.0
2017-05-17T16:22:03.474Z,36.7
2017-05-17T16:27:03.821Z,36.7
2017-05-17T16:37:03.996Z,37.0
2017-05-17T16:42:03.255Z,37.2
2017-05-17T16:47:15.978Z,37.2
2017-05-17T16:52:03.882Z,37.4
2017-05-17T16:57:03.253Z,37.7
2017-05-17T17:02:16.287Z,37.7
2017-05-17T17:07:04.122Z,38.2
2017-05-17T17:12:03.378Z,38.2
2017-05-17T17:17:16.478Z,38.2
2017-05-17T17:22:03.688Z,38.2
2017-05-17T17:27:03.876Z,38.5
2017-05-17T17:32:14.310Z,38.4
2017-05-17T17:37:03.867Z,38.8
2017-05-17T17:42:03.054Z,39.9
2017-05-17T17:47:14.152Z,41.3
2017-05-17T17:52:03.100Z,41.7
2017-05-17T17:57:03.455Z,41.7
2017-05-17T18:02:24.088Z,43.8
2017-05-17T18:07:03.875Z,49.1
2017-05-17T18:12:03.275Z,49.1
2017-05-17T18:17:23.812Z,49.8
2017-05-17T18:22:03.571Z,50.0
2017-05-17T18:27:03.804Z,50.1
2017-05-17T18:32:24.557Z,50.0
2017-05-17T18:37:03.772Z,50.0
2017-05-17T18:42:03.063Z,50.0
2017-05-17T18:47:21.723Z,49.9
2017-05-17T18:52:03.465Z,49.6
2017-05-17T18:57:03.776Z,49.4
2017-05-17T19:02:28.012Z,49.7
2017-05-17T19:07:03.923Z,49.5
2017-05-17T19:12:03.786Z,49.5
2017-05-17T19:17:28.697Z,49.1
2017-05-17T19:22:03.441Z,49.1
2017-05-17T19:27:03.770Z,49.1
2017-05-17T19:32:26.320Z,48.6
2017-05-17T19:37:03.141Z,48.6
2017-05-17T19:42:03.362Z,48.3
2017-05-17T19:47:10.410Z,48.3
2017-05-17T19:52:03.175Z,48.4
2017-05-17T19:57:03.468Z,48.5
2017-05-17T20:02:08.656Z,48.6
2017-05-17T20:07:03.303Z,48.7
2017-05-17T20:12:03.732Z,48.6
2017-05-17T20:17:04.122Z,48.6
2017-05-17T20:22:03.475Z,48.5
2017-05-17T20:27:03.701Z,48.6
2017-05-17T20:32:04.117Z,48.5
2017-05-17T20:37:03.482Z,48.4
2017-05-17T20:42:03.604Z,48.5
2017-05-17T20:47:03.390Z,48.6
2017-05-17T20:52:03.494Z,48.5
2017-05-17T20:57:03.677Z,48.6
2017-05-17T21:02:03.380Z,48.6
2017-05-17T21:07:03.517Z,48.5
2017-05-17T21:12:03.905Z,48.2
2017-05-17T21:17:03.775Z,48.2
2017-05-17T21:22:03.658Z,48.3
2017-05-17T21:27:03.998Z,48.1
2017-05-17T21:32:03.555Z,47.8
2017-05-17T21:37:03.576Z,47.8
2017-05-17T21:42:05.113Z,47.6
2017-05-17T21:47:03.560Z,47.5
2017-05-17T21:52:03.501Z,47.4
2017-05-17T21:57:03.730Z,47.4
2017-05-17T22:02:03.524Z,47.4
2017-05-17T22:07:03.645Z,47.6
2017-05-17T22:12:03.924Z,47.5
2017-05-17T22:22:03.966Z,47.0
2017-05-17T22:27:03.667Z,47.3
2017-05-17T22:32:03.849Z,47.3
2017-05-17T22:37:03.504Z,47.3
2017-05-17T22:42:03.644Z,47.3
2017-05-17T22:47:04.280Z,47.2
2017-05-17T22:52:03.558Z,47.2
2017-05-17T22:57:03.421Z,47.3
2017-05-17T23:02:03.485Z,47.2
2017-05-17T23:07:03.862Z,47.3
2017-05-17T23:12:03.322Z,47.2
2017-05-17T23:17:03.770Z,47.2
2017-05-17T23:22:03.447Z,47.2
2017-05-17T23:27:03.642Z,47.0
2017-05-17T23:32:03.632Z,47.0
2017-05-17T23:37:03.115Z,47.1
2017-05-17T23:42:03.189Z,47.0
2017-05-17T23:47:03.296Z,46.9
2017-05-17T23:52:03.442Z,46.8
2017-05-17T23:57:03.549Z,46.9
